Flight Track Log - Related Links

Times and Time Zones

All times are in EDT time to prevent confusion due to time zone crossing. See the PDT4227 flight status page for this flight to view local times or setup timezone preferences in your user account.

Time Position Orientation Groundspeed Altitude Reporting Facility
EDT Latitude Longitude Course Direction KTS MPH feet Rate Location/Type
Wed 02:41:00 PM 34.9227 -77.2050 226° Southwest  Level FlightAware Approximate
Wed 02:42:00 PM 34.8753 -77.2630 225° Southwest  Level FlightAware Approximate
Wed 02:42:28 PM 35.0506 -77.1372 219° Southwest 191 220 4,900  Level Washington Center
Wed 02:43:00 PM 34.8275 -77.3204 225° Southwest  Level FlightAware Approximate
Wed 02:43:29 PM 35.0044 -77.1667 208° Southwest 191 220 5,700  Level Washington Center
Wed 02:44:00 PM 34.7778 -77.3667 231° Southwest  Level FlightAware Approximate
Wed 02:44:30 PM 34.9519 -77.1961 205° Southwest 203 234 6,400  Level Washington Center
Wed 02:45:00 PM 34.7306 -77.4246 223° Southwest  Level FlightAware Approximate
Wed 02:45:28 PM 34.9075 -77.2358 216° Southwest 210 242 7,100  Level Washington Center
Wed 02:46:00 PM 34.6816 -77.4806 223° Southwest  Level FlightAware Approximate
Wed 02:46:29 PM 34.8628 -77.2906 225° Southwest 218 251 8,000  Level Washington Center
Wed 02:47:00 PM 34.6317 -77.5350 219° Southwest  Level FlightAware Approximate
Wed 02:47:30 PM 34.8206 -77.3428 225° Southwest 218 251 8,800  Level Washington Center
Wed 02:48:28 PM 34.7781 -77.3925 224° Southwest 218 251 9,500 814 Climbing Washington Center
Wed 02:49:28 PM 34.7336 -77.4319 216° Southwest 218 251 10,400 689 Climbing Washington Center
Wed 02:50:30 PM 34.6931 -77.4789 224° Southwest 212 244 10,900 600 Climbing Washington Center
Wed 02:51:28 PM 34.6528 -77.5286 225° Southwest 212 244 11,600 655 Climbing Washington Center
Wed 02:52:29 PM 34.6144 -77.5731 224° Southwest 212 244 12,200 639 Climbing Washington Center
Wed 02:53:30 PM 34.5719 -77.6175 221° Southwest 207 238 12,900 744 Climbing Washington Center
Wed 02:54:30 PM 34.5358 -77.6644 227° Southwest 202 232 13,700 712 Climbing Washington Center
Wed 02:55:28 PM 34.4994 -77.7089 225° Southwest 196 226 14,300 559 Climbing Washington Center
Wed 02:56:28 PM 34.4633 -77.7508 224° Southwest 191 220 14,800 545 Climbing Washington Center
Wed 02:57:29 PM 34.4228 -77.7925 220° Southwest 191 220 15,400 541 Climbing Washington Center
Wed 02:58:30 PM 34.3867 -77.8367 225° Southwest 196 226 15,900 298 Climbing Washington Center
Wed 02:59:30 PM 34.3481 -77.8861 227° Southwest 196 226 16,000 51 Climbing Washington Center
Wed 03:00:28 PM 34.3447 -77.9564 267° West 196 226 16,000  Level Washington Center
Wed 03:01:29 PM 34.3431 -78.0267 268° West 202 232 16,000  Level Washington Center
Wed 03:02:29 PM 34.3333 -78.0994 261° West 218 251 16,000  Level Washington Center
Wed 03:03:30 PM 34.3339 -78.1747 271° West 223 257 16,000  Level Washington Center
Wed 03:06:00 PM 34.3228 -78.3697 266° West 222 255 16,000  Level Jacksonville Center
Wed 03:07:00 PM 34.3192 -78.4453 267° West 222 255 16,000  Level Jacksonville Center
Wed 03:08:00 PM 34.3153 -78.5133 266° West 222 255 16,000  Level Jacksonville Center
Wed 03:09:00 PM 34.3075 -78.5867 263° West 222 255 16,000  Level Jacksonville Center
Wed 03:10:00 PM 34.3017 -78.6622 265° West 222 255 16,000  Level Jacksonville Center
Wed 03:11:00 PM 34.2958 -78.7356 265° West 222 255 16,000 -100 Level Jacksonville Center
Wed 03:12:00 PM 34.2858 -78.8114 261° West 222 255 15,800 -350 Descending Jacksonville Center
Wed 03:13:00 PM 34.2819 -78.8894 267° West 222 255 15,300 -500 Descending Jacksonville Center
Wed 03:14:00 PM 34.2761 -78.9700 265° West 234 269 14,800 -500 Descending Jacksonville Center
Wed 03:15:00 PM 34.2725 -79.0506 267° West 239 275 14,300 -750 Descending Jacksonville Center
Wed 03:16:00 PM 34.2747 -79.1308 272° West 239 275 13,300 -1,000 Descending Jacksonville Center
Wed 03:17:00 PM 34.3039 -79.2000 297° West 232 267 12,300 -1,000 Descending Jacksonville Center
Wed 03:18:00 PM 34.3289 -79.2694 294° West 232 267 11,300 -1,000 Descending Jacksonville Center
Wed 03:19:00 PM 34.3497 -79.3439 289° West 232 267 10,300 -650 Descending Jacksonville Center
Wed 03:20:00 PM 34.3772 -79.4258 292° West 232 267 10,000 -150 Descending Jacksonville Center
Wed 03:21:00 PM 34.4042 -79.4953 295° West 232 267 10,000  Level Jacksonville Center
Wed 03:22:00 PM 34.4269 -79.5697 290° West 232 267 10,000  Level Jacksonville Center
Wed 03:23:00 PM 34.4475 -79.6419 289° West 227 261 10,000  Level Jacksonville Center
Wed 03:24:00 PM 34.4710 -79.7089 293° West  Level FlightAware Approximate
Wed 03:28:32 PM 34.5700 -80.0356 292° West 230 265 10,000  Level Atlanta Center
Wed 03:29:51 PM 34.6025 -80.1372 291° West 230 265 10,000  Level Atlanta Center
Wed 03:30:52 PM 34.6258 -80.2094 291° West 229 264 10,000  Level Atlanta Center
Wed 03:31:00 PM 34.6324 -80.1799 292° West  Level FlightAware Approximate
Wed 03:31:53 PM 34.6508 -80.2817 293° West 230 265 10,000  Level Atlanta Center
Wed 03:32:00 PM 34.6549 -80.2475 292° West  Level FlightAware Approximate
Wed 03:33:00 PM 34.6773 -80.3152 292° West  Level FlightAware Approximate
Wed 03:33:00 PM 34.6964 -80.3400 314° West 231 266 10,000  Level Atlanta Center
Wed 03:33:55 PM 34.7378 -80.3939 313° West 232 267 9,900 -207 Descending Atlanta Center
Wed 03:34:56 PM 34.7853 -80.4525 315° West 238 274 9,600 -269 Descending Atlanta Center
Wed 03:36:09 PM 34.8436 -80.5183 317° Northwest 244 281 9,300 -269 Descending Atlanta Center
Wed 03:37:10 PM 34.8917 -80.5897 309° West 244 281 9,000 -148 Descending Atlanta Center
Wed 03:38:11 PM 34.9408 -80.6383 321° Northwest 236 272 9,000  Level Atlanta Center
Wed 03:39:06 PM 34.9842 -80.6900 316° Northwest 231 266 9,000  Level Atlanta Center
Wed 03:40:13 PM 35.0297 -80.7567 310° West 231 266 9,000  Level Atlanta Center
Wed 03:41:14 PM 35.0825 -80.7850 336° Northwest 223 257 9,000  Level Atlanta Center
Wed 03:42:15 PM 35.1497 -80.7950 353° North 220 253 9,000 -492 Level Atlanta Center
Wed 03:43:16 PM 35.2081 -80.8003 356° North 211 243 8,000 -1,722 Descending Atlanta Center
Wed 03:44:10 PM 35.2489 -80.7606 38° Northeast 209 241 5,700 -2,556 Descending Atlanta Center

Login

Don't have an account? Register now (free) for customized features, flight alerts, and more!